Latest Coastal Weather Observations for Varanus Island

IDW60701

Issued at 10:32 am WST Tuesday 25 June 2024 (issued every 10 minutes, with the page automatically refreshed every 10 minutes)

About coastal observations | Map of coastal stations | Coastal observations for WA | Marine services | Other Formats
Station Details ID: 200100 Name: VARANUS ISLAND Lat: -20.66 Lon: 115.58 Height: 24.0 m
Data from the previous 72 hours. | See also: Recent months at Varanus Island
Date/Time
WST
Wind Sea
Height
m
Swell Vis
km
Cloud Weather Temp
°C
Press
MSL
hPa
Rain since
9am
mm
Dir  Spd
kts
Gust
kts
Height
m
Period
s
Dir
25/10:30am E 14 16 - - - - - - - 24.6 1014.9 0.0
25/10:00am E 12 16 - - - - - - - 24.5 1015.1 0.0
25/09:30am E 7 7 - - - - - - - 25.7 1015.3 0.0
25/09:00am E 6 7 - - - - - - - 25.4 1015.0 0.0
25/08:30am ENE 4 5 - - - - - - - 25.4 1014.8 0.0
25/08:00am CALM 0 0 - - - - - - - 24.0 1014.6 0.0
25/07:30am CALM 0 0 - - - - - - - 23.3 1014.3 0.0
25/07:00am CALM 0 0 - - - - - - - 22.7 1014.2 0.0
25/06:30am NW 3 4 - - - - - - - 23.1 1013.9 0.0
25/06:00am NW 4 5 - - - - - - - 22.8 1013.8 0.0
25/05:30am WNW 5 6 - - - - - - - 23.1 1013.7 0.0
25/05:00am NW 5 5 - - - - - - - 22.8 1013.5 0.0
25/04:30am NW 5 7 - - - - - - - 22.9 1013.6 0.0
25/04:00am NW 6 7 - - - - - - - 23.0 1013.8 0.0
25/03:30am NW 6 8 - - - - - - - 23.2 1014.0 0.0
25/03:00am NW 6 8 - - - - - - - 23.1 1014.1 0.0
25/02:30am NNW 7 8 - - - - - - - 23.0 1014.3 0.0
25/02:00am NNW 7 9 - - - - - - - 23.0 1014.5 0.0
25/01:30am NNW 8 11 - - - - - - - 23.1 1014.8 0.0
25/01:00am NNW 8 10 - - - - - - - 23.1 1015.0 0.0
25/12:30am N 9 11 - - - - - - - 23.3 1015.0 0.0
25/12:00am N 10 12 - - - - - - - 23.3 1015.0 0.0
 
Date/Time
WST
Wind Sea
Height
m
Swell Vis
km
Cloud Weather Temp
°C
Press
MSL
hPa
Rain since
9am
mm
Dir  Spd
kts
Gust
kts
Height
m
Period
s
Dir
24/11:30pm N 8 11 - - - - - - - 23.5 1015.2 0.0
24/11:00pm N 9 12 - - - - - - - 23.5 1015.5 0.0
24/10:30pm NNE 8 10 - - - - - - - 23.4 1015.6 0.0
24/10:00pm NNE 8 11 - - - - - - - 23.5 1015.7 0.0
24/09:30pm NNE 9 12 - - - - - - - 23.4 1015.8 0.0
24/09:00pm NNE 9 11 - - - - - - - 23.5 1015.9 0.0
24/08:30pm NE 9 12 - - - - - - - 23.6 1015.9 0.0
24/08:00pm NE 10 13 - - - - - - - 23.6 1015.7 0.0
24/07:30pm NE 9 13 - - - - - - - 23.5 1015.7 0.0
24/07:00pm NE 11 13 - - - - - - - 23.4 1015.6 0.0
24/06:30pm NE 11 13 - - - - - - - 23.4 1015.5 0.0
24/06:00pm NE 10 13 - - - - - - - 23.5 1015.5 0.0
24/05:30pm ENE 11 13 - - - - - - - 23.8 1015.4 0.0
24/05:00pm NE 12 14 - - - - - - - 24.3 1015.4 0.0
24/04:30pm ENE 13 17 - - - - - - - 24.7 1015.2 0.0
24/04:00pm ENE 13 16 - - - - - - - 25.2 1015.3 0.0
24/03:30pm NE 15 19 - - - - - - - 24.8 1015.1 0.0
24/03:00pm NE 15 18 - - - - - - - 25.4 1015.2 0.0
24/02:30pm ENE 16 20 - - - - - - - 25.1 1015.4 0.0
24/02:00pm NE 17 21 - - - - - - - 25.7 1015.6 0.0
24/01:30pm ENE 19 22 - - - - - - - 25.9 1015.9 0.0
24/01:00pm ENE 19 23 - - - - - - - 25.8 1016.3 0.0
24/12:30pm ENE 18 22 - - - - - - - 26.1 1016.8 0.0
24/12:00pm ENE 21 24 - - - - - - - 26.2 1017.1 0.0
24/11:30am ENE 20 23 - - - - - - - 25.8 1017.5 0.0
24/11:00am E 19 22 - - - - - - - 25.5 1017.9 0.0
24/10:30am E 18 21 - - - - - - - 24.8 1018.0 0.0
24/10:00am E 18 20 - - - - - - - 25.0 1018.3 0.0
24/09:30am E 19 22 - - - - - - - 25.3 1018.2 0.0
24/09:00am E 15 18 - - - - - - - 25.3 1018.1 0.0
24/08:30am E 14 16 - - - - - - - 24.9 1018.0 0.0
24/08:00am E 15 17 - - - - - - - 24.2 1017.8 0.0
24/07:30am E 14 16 - - - - - - - 23.4 1017.5 0.0
24/07:00am ESE 13 14 - - - - - - - 22.9 1017.1 0.0
24/06:30am ESE 10 12 - - - - - - - 22.6 1016.8 0.0
24/06:00am SE 9 11 - - - - - - - 22.6 1016.3 0.0
24/05:30am SSE 8 9 - - - - - - - 22.6 1016.2 0.0
24/05:00am S 8 9 - - - - - - - 22.4 1016.0 0.0
24/04:30am S 8 9 - - - - - - - 22.5 1016.1 0.0
24/04:00am S 9 10 - - - - - - - 22.6 1016.2 0.0
24/03:30am SSE 8 9 - - - - - - - 22.5 1016.2 0.0
24/03:00am SSE 9 10 - - - - - - - 22.5 1016.6 0.0
24/02:30am S 9 11 - - - - - - - 22.8 1016.8 0.0
24/02:00am S 8 10 - - - - - - - 22.8 1017.2 0.0
24/01:30am S 8 10 - - - - - - - 22.9 1017.5 0.0
24/01:00am S 7 9 - - - - - - - 22.9 1017.7 0.0
24/12:30am S 7 8 - - - - - - - 22.9 1017.7 0.0
24/12:00am S 7 7 - - - - - - - 23.0 1017.9 0.0
 
Date/Time
WST
Wind Sea
Height
m
Swell Vis
km
Cloud Weather Temp
°C
Press
MSL
hPa
Rain since
9am
mm
Dir  Spd
kts
Gust
kts
Height
m
Period
s
Dir
23/11:30pm SW 7 8 - - - - - - - 23.0 1018.1 0.0
23/11:00pm SW 6 8 - - - - - - - 23.7 1018.1 0.0
23/10:30pm W 4 5 - - - - - - - 23.3 1018.1 0.0
23/10:00pm W 5 6 - - - - - - - 23.2 1018.2 0.0
23/09:30pm CALM 0 0 - - - - - - - 23.0 1018.1 0.0
23/09:00pm CALM 0 0 - - - - - - - 23.0 1018.0 0.0
23/08:30pm NW 5 5 - - - - - - - 23.0 1018.0 0.0
23/08:00pm CALM 0 2 - - - - - - - 23.2 1017.8 0.0
23/07:30pm NNW 6 7 - - - - - - - 23.3 1017.6 0.0
23/07:00pm NNW 7 8 - - - - - - - 23.5 1017.3 0.0
23/06:30pm N 7 7 - - - - - - - 23.6 1017.3 0.0
23/06:00pm N 5 7 - - - - - - - 24.1 1017.1 0.0
23/05:30pm NE 7 8 - - - - - - - 24.6 1017.0 0.0
23/05:00pm NE 5 7 - - - - - - - 25.3 1016.9 0.0
23/04:30pm ENE 6 7 - - - - - - - 25.8 1017.0 0.0
23/04:00pm E 8 9 - - - - - - - 26.0 1017.0 0.0
23/03:30pm E 10 11 - - - - - - - 26.0 1017.0 0.0
23/03:00pm E 11 13 - - - - - - - 26.4 1017.1 0.0
23/02:30pm E 12 14 - - - - - - - 26.4 1017.0 0.0
23/02:00pm E 12 13 - - - - - - - 26.5 1017.4 0.0
23/01:30pm E 12 13 - - - - - - - 26.5 1017.9 0.0
23/01:00pm E 13 15 - - - - - - - 26.1 1018.1 0.0
23/12:30pm E 12 14 - - - - - - - 26.0 1018.6 0.0
23/12:00pm ESE 12 15 - - - - - - - 25.6 1019.1 0.0
23/11:30am ESE 13 16 - - - - - - - 25.4 1019.3 0.0
23/11:00am SE 11 12 - - - - - - - 25.1 1019.6 0.0
23/10:30am SE 10 13 - - - - - - - 25.1 1020.0 0.0
23/10:00am SE 13 15 - - - - - - - 24.3 1020.0 0.0
23/09:30am SE 12 14 - - - - - - - 24.2 1019.9 0.0
23/09:00am SE 12 13 - - - - - - - 23.6 1019.7 0.0
23/08:30am SE 12 14 - - - - - - - 23.6 1019.3 0.0
23/08:00am SE 11 13 - - - - - - - 23.2 1019.0 0.0
23/07:30am SE 10 12 - - - - - - - 22.8 1018.9 0.0
23/07:00am SSE 10 13 - - - - - - - 22.2 1018.7 0.0
23/06:30am SSE 10 12 - - - - - - - 22.2 1018.4 0.0
23/06:00am SSE 11 13 - - - - - - - 22.1 1018.2 0.0
23/05:30am S 12 15 - - - - - - - 22.0 1018.2 0.0
23/05:00am S 12 14 - - - - - - - 21.9 1018.2 0.0
23/04:30am SSE 11 13 - - - - - - - 21.7 1018.1 0.0
23/04:00am SSE 11 15 - - - - - - - 21.9 1018.1 0.0
23/03:30am S 10 13 - - - - - - - 22.5 1018.1 0.0
23/03:00am S 10 12 - - - - - - - 22.6 1018.2 0.0
23/02:30am S 9 11 - - - - - - - 22.7 1018.3 0.0
23/02:00am S 9 11 - - - - - - - 22.8 1018.4 0.0
23/01:30am SSW 7 8 - - - - - - - 22.8 1018.5 0.0
23/01:00am WSW 6 7 - - - - - - - 23.3 1018.5 0.0
23/12:30am W 5 6 - - - - - - - 23.2 1018.4 0.0
23/12:00am WNW 6 7 - - - - - - - 23.3 1018.6 0.0
 
Date/Time
WST
Wind Sea
Height
m
Swell Vis
km
Cloud Weather Temp
°C
Press
MSL
hPa
Rain since
9am
mm
Dir  Spd
kts
Gust
kts
Height
m
Period
s
Dir
22/11:30pm NW 6 7 - - - - - - - 23.2 1018.8 0.0
22/11:00pm NNW 6 7 - - - - - - - 23.3 1019.0 0.0
22/10:30pm NNW 6 7 - - - - - - - 23.3 1018.8 0.0
22/10:00pm NNE 4 5 - - - - - - - 23.7 1018.7 0.0
22/09:30pm NE 7 8 - - - - - - - 23.8 1018.4 0.0
22/09:00pm ENE 7 8 - - - - - - - 23.6 1018.2 0.0
22/08:30pm NE 8 9 - - - - - - - 23.8 1018.1 0.0
22/08:00pm NE 9 11 - - - - - - - 23.8 1017.9 0.0
22/07:30pm NE 9 11 - - - - - - - 24.0 1017.8 0.0
22/07:00pm NE 10 13 - - - - - - - 24.0 1017.7 0.0
22/06:30pm NE 11 13 - - - - - - - 24.0 1017.4 0.0
22/06:00pm ENE 11 13 - - - - - - - 24.0 1017.1 0.0
22/05:30pm ENE 11 13 - - - - - - - 24.3 1017.2 0.0
22/05:00pm ENE 13 15 - - - - - - - 24.6 1017.0 0.0
22/04:30pm ENE 14 17 - - - - - - - 25.0 1016.8 0.0
22/04:00pm ENE 15 18 - - - - - - - 25.1 1016.6 0.0
22/03:30pm ENE 15 18 - - - - - - - 25.4 1016.6 0.0
22/03:00pm ENE 16 19 - - - - - - - 25.5 1016.6 0.0
22/02:30pm ENE 17 21 - - - - - - - 25.9 1016.6 0.0
22/02:00pm ENE 16 19 - - - - - - - 25.4 1016.8 0.0
22/01:30pm ENE 16 19 - - - - - - - 25.6 1017.2 0.0
22/01:00pm ENE 18 21 - - - - - - - 25.3 1017.7 0.0
22/12:30pm ENE 19 23 - - - - - - - 25.2 1018.2 0.0
22/12:00pm ENE 19 23 - - - - - - - 25.3 1018.7 0.0
22/11:30am ENE 19 22 - - - - - - - 24.7 1019.0 0.0
22/11:00am ENE 19 22 - - - - - - - 24.7 1019.4 0.0

Other formats

Comma delimited format used in spreadsheet applications
http://www.bom.gov.au/fwo/IDW60701/IDW60701.95303.axf

JavaScript Object Notation format (JSON) in row-major order
http://www.bom.gov.au/fwo/IDW60701/IDW60701.95303.json

Data quality

Most of these data are generated automatically and are frequently updated. Quality checks on data are not normally performed. It is possible for incorrect values to appear. Refer to information at About Latest Weather Observations and please check the disclaimer before using these data.